Time;durP1;ratioP1;P1;durP2;ratioP2;P2;SDS_P1;SDS_P2;PMS_P1;PMS_P2;Temp;Humidity;BMP_temperature;BMP_pressure;BME280_temperature;BME280_humidity;BME280_pressure;Samples;Min_cycle;Max_cycle;Signal;HPM_P1;HPM_P2
2022/10/28 00:01:33;;;;;;;174.80;10.88;;;8.20;99.90;;;;;;5071258;28;20082;-51
2022/10/28 00:04:00;;;;;;;88.10;8.60;;;8.20;99.90;;;;;;5071565;28;20047;-52
2022/10/28 00:06:32;;;;;;;156.52;10.48;;;8.20;99.90;;;;;;5071458;28;20096;-50
2022/10/28 00:08:58;;;;;;;90.80;10.00;;;8.10;99.90;;;;;;5071410;28;20399;-50
2022/10/28 00:11:32;;;;;;;158.93;9.30;;;8.10;99.90;;;;;;5071278;28;20022;-50
2022/10/28 00:14:01;;;;;;;61.65;7.90;;;8.00;99.90;;;;;;5071602;28;20058;-51
2022/10/28 00:16:29;;;;;;;124.25;9.27;;;8.00;99.90;;;;;;5071109;28;20377;-53
2022/10/28 00:18:56;;;;;;;51.42;8.05;;;7.90;99.90;;;;;;5070696;28;20060;-53
2022/10/28 00:21:24;;;;;;;56.20;7.85;;;7.90;99.90;;;;;;5071338;28;20541;-50
2022/10/28 00:23:50;;;;;;;90.90;8.48;;;7.90;99.90;;;;;;5077097;28;20016;-53
2022/10/28 00:26:19;;;;;;;131.68;10.00;;;7.90;99.90;;;;;;5077936;28;20029;-51
2022/10/28 00:28:49;;;;;;;65.28;7.05;;;7.90;99.90;;;;;;5077510;28;20028;-51
2022/10/28 00:31:16;;;;;;;36.78;6.72;;;7.90;99.90;;;;;;5077790;28;20055;-50
2022/10/28 00:33:42;;;;;;;42.85;7.53;;;7.90;99.90;;;;;;5078044;28;20032;-51
2022/10/28 00:36:08;;;;;;;12.07;6.63;;;7.80;99.90;;;;;;5078001;28;20387;-51
2022/10/28 00:38:33;;;;;;;12.88;5.60;;;7.80;99.90;;;;;;5076277;28;20025;-52
2022/10/28 00:40:59;;;;;;;5.13;4.63;;;7.80;99.90;;;;;;5077850;28;20021;-50
2022/10/28 00:43:35;;;;;;;5.10;4.60;;;7.80;99.90;;;;;;5077729;28;20021;-51
2022/10/28 00:46:01;;;;;;;5.28;4.78;;;7.80;99.90;;;;;;5077842;28;20101;-52
2022/10/28 00:48:27;;;;;;;4.90;4.22;;;7.80;99.90;;;;;;5077624;28;20186;-51
2022/10/28 00:50:54;;;;;;;8.93;5.00;;;7.80;99.90;;;;;;5077912;28;20535;-52
2022/10/28 00:53:30;;;;;;;14.50;4.88;;;7.80;99.90;;;;;;5076307;28;20655;-53
2022/10/28 00:55:57;;;;;;;5.03;4.63;;;7.80;99.90;;;;;;5077711;28;20075;-54
2022/10/28 00:58:25;;;;;;;5.68;5.18;;;7.70;99.90;;;;;;5077573;28;20040;-52
2022/10/28 01:00:50;;;;;;;13.48;5.35;;;7.80;99.90;;;;;;5077732;28;20024;-51
2022/10/28 01:03:16;;;;;;;6.28;4.72;;;7.80;99.90;;;;;;5077266;28;20551;-53
2022/10/28 01:05:45;;;;;;;10.13;6.40;;;7.70;99.90;;;;;;5077792;28;20470;-54
2022/10/28 01:08:11;;;;;;;9.77;5.47;;;7.70;99.90;;;;;;5077374;28;20120;-52
2022/10/28 01:11:05;;;;;;;9.00;5.00;;;7.70;99.90;;;;;;5077805;28;20025;-53
2022/10/28 01:13:47;;;;;;;13.32;5.30;;;7.60;99.90;;;;;;5077767;28;20391;-55
2022/10/28 01:16:25;;;;;;;27.45;5.38;;;7.50;99.90;;;;;;5077221;28;20024;-53
2022/10/28 01:19:01;;;;;;;15.07;5.68;;;7.50;99.90;;;;;;5057470;28;20508;-52
2022/10/28 01:22:00;;;;;;;5.57;5.07;;;7.50;99.90;;;;;;5057393;28;20071;-51
2022/10/28 01:24:57;;;;;;;13.38;5.80;;;7.50;99.90;;;;;;5057259;28;20021;-52
2022/10/28 01:28:02;;;;;;;16.90;5.70;;;7.50;99.90;;;;;;5057318;28;20115;-52
2022/10/28 01:30:55;;;;;;;14.55;5.00;;;7.50;99.90;;;;;;5057374;28;20094;-51
2022/10/28 01:33:32;;;;;;;9.90;5.20;;;7.50;99.90;;;;;;5074756;28;20032;-51
2022/10/28 01:36:19;;;;;;;5.97;4.60;;;7.40;99.90;;;;;;5073612;28;20032;-51
2022/10/28 01:38:49;;;;;;;9.98;4.68;;;7.40;99.90;;;;;;5074125;28;20029;-53
2022/10/28 01:41:20;;;;;;;9.25;4.22;;;7.40;99.90;;;;;;5073774;28;20027;-53
2022/10/28 01:43:55;;;;;;;9.10;4.13;;;7.30;99.90;;;;;;5074007;28;20024;-54
2022/10/28 01:46:55;;;;;;;6.13;4.72;;;7.40;99.90;;;;;;5074012;28;20055;-51
2022/10/28 01:49:38;;;;;;;28.05;5.85;;;7.40;99.90;;;;;;5073879;28;20017;-53
2022/10/28 01:52:08;;;;;;;12.85;5.07;;;7.40;99.90;;;;;;5072712;28;20071;-54
2022/10/28 01:54:35;;;;;;;5.63;4.43;;;7.30;99.90;;;;;;5072878;28;20471;-51
2022/10/28 01:57:03;;;;;;;30.58;6.75;;;7.30;99.90;;;;;;5072854;28;20115;-51
2022/10/28 01:59:30;;;;;;;10.85;4.95;;;7.20;99.90;;;;;;5072914;28;20090;-50
2022/10/28 02:01:56;;;;;;;11.38;5.18;;;7.20;99.90;;;;;;5073169;28;20028;-52
2022/10/28 02:04:22;;;;;;;8.93;5.45;;;7.20;99.90;;;;;;5072704;28;20647;-53
2022/10/28 02:06:52;;;;;;;12.07;4.75;;;7.20;99.90;;;;;;5073019;28;20025;-50
2022/10/28 02:09:20;;;;;;;7.53;4.57;;;7.20;99.90;;;;;;5073152;28;20048;-49
2022/10/28 02:12:04;;;;;;;11.73;4.50;;;7.20;99.90;;;;;;5073390;28;20055;-51
2022/10/28 02:14:30;;;;;;;4.68;4.28;;;7.20;99.90;;;;;;5073515;28;20100;-49
2022/10/28 02:17:24;;;;;;;7.55;4.75;;;7.20;99.90;;;;;;5073586;28;20113;-51
2022/10/28 02:20:08;;;;;;;;;;;7.10;99.90;;;;;;5073927;28;20116;-51
2022/10/28 02:22:55;;;;;;;11.88;5.45;;;7.10;99.90;;;;;;5073079;28;19914;-50
2022/10/28 02:25:30;;;;;;;6.65;3.90;;;7.10;99.90;;;;;;5073192;28;20496;-51
2022/10/28 02:28:08;;;;;;;7.10;5.70;;;7.10;99.90;;;;;;5071906;28;20111;-53
2022/10/28 02:30:56;;;;;;;42.75;6.18;;;7.10;99.90;;;;;;5073360;28;20372;-52
2022/10/28 02:33:27;;;;;;;34.90;6.13;;;7.10;99.90;;;;;;5071809;28;20050;-50
2022/10/28 02:36:02;;;;;;;8.38;5.28;;;7.10;99.90;;;;;;5073129;28;20021;-54
2022/10/28 02:38:38;;;;;;;20.63;5.78;;;7.00;99.90;;;;;;5072902;28;20032;-50
2022/10/28 02:41:18;;;;;;;35.78;6.28;;;7.00;99.90;;;;;;5073212;28;20512;-52
2022/10/28 02:43:49;;;;;;;15.38;5.47;;;6.90;99.90;;;;;;5073017;28;20013;-49
2022/10/28 02:46:17;;;;;;;10.38;5.50;;;7.00;99.90;;;;;;5072391;28;20481;-50
2022/10/28 02:48:59;;;;;;;6.32;5.45;;;7.00;99.90;;;;;;5072873;28;20020;-51
2022/10/28 02:51:33;;;;;;;5.25;4.13;;;6.90;99.90;;;;;;5072609;28;20082;-53
2022/10/28 02:54:06;;;;;;;15.10;4.80;;;6.90;99.90;;;;;;5072858;28;20085;-51
2022/10/28 02:56:41;;;;;;;6.32;5.25;;;7.00;99.90;;;;;;5072683;28;20662;-50
2022/10/28 02:59:11;;;;;;;6.55;4.80;;;6.90;99.90;;;;;;5072617;28;20032;-54
2022/10/28 03:01:37;;;;;;;8.95;4.63;;;6.90;99.90;;;;;;5072517;28;20023;-51
2022/10/28 03:04:03;;;;;;;6.57;4.30;;;6.90;99.90;;;;;;5072550;28;20016;-50
2022/10/28 03:06:29;;;;;;;6.63;4.80;;;6.90;99.90;;;;;;5072399;28;20100;-51
2022/10/28 03:08:55;;;;;;;7.63;4.70;;;6.90;99.90;;;;;;5072350;28;20045;-52
2022/10/28 03:11:20;;;;;;;7.25;4.70;;;6.90;99.90;;;;;;5072317;28;20031;-53
2022/10/28 03:13:46;;;;;;;3.95;3.65;;;6.90;99.90;;;;;;5072132;28;20032;-55
2022/10/28 03:16:12;;;;;;;4.10;3.67;;;6.90;99.90;;;;;;5072206;28;20062;-53
2022/10/28 03:18:37;;;;;;;10.23;4.40;;;6.80;99.90;;;;;;5072090;28;20104;-55
2022/10/28 03:21:03;;;;;;;5.70;3.65;;;6.80;99.90;;;;;;5072115;28;20089;-51
2022/10/28 03:23:29;;;;;;;13.38;4.57;;;6.80;99.90;;;;;;5071609;28;20017;-54
2022/10/28 03:25:54;;;;;;;7.43;4.00;;;6.80;99.90;;;;;;5071835;28;20491;-53
2022/10/28 03:28:20;;;;;;;8.32;3.92;;;6.80;99.90;;;;;;5071339;28;20023;-54
2022/10/28 03:30:45;;;;;;;4.32;3.92;;;6.80;99.90;;;;;;5071832;28;20025;-50
2022/10/28 03:33:11;;;;;;;7.07;4.15;;;6.70;99.90;;;;;;5071894;28;20040;-55
2022/10/28 03:35:37;;;;;;;4.97;3.70;;;6.70;99.90;;;;;;5071926;28;20028;-52
2022/10/28 03:38:02;;;;;;;5.50;3.95;;;6.70;99.90;;;;;;5070630;28;20020;-54
2022/10/28 03:40:28;;;;;;;4.47;3.30;;;6.70;99.90;;;;;;5071742;28;20024;-52
2022/10/28 03:42:54;;;;;;;8.07;3.92;;;6.70;99.90;;;;;;5071738;28;20111;-50
2022/10/28 03:45:19;;;;;;;6.18;3.50;;;6.70;99.90;;;;;;5071035;28;20052;-52
2022/10/28 03:47:45;;;;;;;5.32;3.45;;;6.70;99.90;;;;;;5071494;28;20111;-54
2022/10/28 03:50:11;;;;;;;3.58;3.13;;;6.70;99.90;;;;;;5071263;28;20020;-52
2022/10/28 03:52:36;;;;;;;4.22;3.30;;;6.70;99.90;;;;;;5071586;28;20020;-52
2022/10/28 03:55:02;;;;;;;9.98;3.55;;;6.70;99.90;;;;;;5071721;28;20043;-52
2022/10/28 03:57:32;;;;;;;5.57;3.08;;;6.60;99.90;;;;;;5071001;28;20613;-53
2022/10/28 03:59:57;;;;;;;11.15;3.70;;;6.60;99.90;;;;;;5071498;28;20048;-54
2022/10/28 04:02:23;;;;;;;8.00;3.38;;;6.60;99.90;;;;;;5071493;28;20380;-50
2022/10/28 04:04:49;;;;;;;6.43;3.70;;;6.50;99.90;;;;;;5071639;28;20016;-52
2022/10/28 04:07:14;;;;;;;6.72;3.85;;;6.50;99.90;;;;;;5071467;28;20048;-49
2022/10/28 04:09:40;;;;;;;6.35;3.55;;;6.50;99.90;;;;;;5071375;28;20118;-49
2022/10/28 04:12:06;;;;;;;7.63;3.65;;;6.50;99.90;;;;;;5071586;28;20116;-54
2022/10/28 04:14:31;;;;;;;7.30;3.53;;;6.50;99.90;;;;;;5071192;28;20472;-51
2022/10/28 04:16:57;;;;;;;10.55;3.35;;;6.50;99.90;;;;;;5070926;28;20410;-51
2022/10/28 04:19:23;;;;;;;11.10;3.45;;;6.50;99.90;;;;;;5071095;28;20082;-53
2022/10/28 04:21:49;;;;;;;9.93;3.28;;;6.40;99.90;;;;;;5071361;28;20036;-51
2022/10/28 04:24:14;;;;;;;4.50;3.50;;;6.40;99.90;;;;;;5071200;28;20048;-51
2022/10/28 04:26:40;;;;;;;21.25;4.45;;;6.40;99.90;;;;;;5071410;28;20029;-51
2022/10/28 04:29:06;;;;;;;7.88;3.80;;;6.50;99.90;;;;;;5071320;28;20024;-51
2022/10/28 04:31:31;;;;;;;4.72;3.63;;;6.40;99.90;;;;;;5071005;28;20116;-51
2022/10/28 04:33:57;;;;;;;9.35;3.72;;;6.40;99.90;;;;;;5071215;28;20601;-52
2022/10/28 04:36:22;;;;;;;6.90;4.55;;;6.40;99.90;;;;;;5069112;28;20063;-50
2022/10/28 04:38:50;;;;;;;5.13;3.85;;;6.50;99.90;;;;;;5068649;28;20502;-51
2022/10/28 04:41:16;;;;;;;6.10;3.85;;;6.40;99.90;;;;;;5069717;28;20028;-53
2022/10/28 04:43:42;;;;;;;8.73;5.15;;;6.40;99.90;;;;;;5069917;28;20100;-49
2022/10/28 04:46:08;;;;;;;5.75;4.78;;;6.40;99.90;;;;;;5069791;28;20028;-50
2022/10/28 04:48:34;;;;;;;8.65;4.93;;;6.30;99.90;;;;;;5069615;28;20543;-49
2022/10/28 04:50:59;;;;;;;5.95;4.68;;;6.30;99.90;;;;;;5070191;28;20031;-51
2022/10/28 04:53:25;;;;;;;10.52;5.07;;;6.30;99.90;;;;;;5069698;28;20055;-50
2022/10/28 04:55:55;;;;;;;11.77;5.07;;;6.30;99.90;;;;;;5069840;28;20021;-51
2022/10/28 04:58:20;;;;;;;8.75;5.80;;;6.30;99.90;;;;;;5069733;28;20105;-50
2022/10/28 05:00:46;;;;;;;7.68;5.00;;;6.20;99.90;;;;;;5069631;28;20114;-50
2022/10/28 05:03:11;;;;;;;11.75;6.03;;;6.20;99.90;;;;;;5069622;28;20190;-50
2022/10/28 05:05:37;;;;;;;11.18;5.05;;;6.20;99.90;;;;;;5069578;28;20020;-51
2022/10/28 05:08:03;;;;;;;11.02;4.47;;;6.30;99.90;;;;;;5069439;28;20497;-50
2022/10/28 05:10:29;;;;;;;7.03;4.28;;;6.20;99.90;;;;;;5071987;28;20557;-51
2022/10/28 05:12:55;;;;;;;5.72;4.70;;;6.20;99.90;;;;;;5073321;28;20357;-50
2022/10/28 05:15:20;;;;;;;11.38;4.15;;;6.20;99.90;;;;;;5073010;28;20040;-50
2022/10/28 05:17:46;;;;;;;7.35;3.92;;;6.20;99.90;;;;;;5073323;28;20025;-52
2022/10/28 05:20:15;;;;;;;11.15;3.90;;;6.20;99.90;;;;;;5072935;28;20032;-50
2022/10/28 05:22:48;;;;;;;13.50;4.35;;;6.20;99.90;;;;;;5073667;28;20376;-51
2022/10/28 05:25:14;;;;;;;;;;;6.10;99.90;;;;;;5073586;28;20036;-50
2022/10/28 05:27:40;;;;;;;6.35;4.60;;;6.10;99.90;;;;;;5073117;28;19955;-49
2022/10/28 05:30:07;;;;;;;8.02;4.82;;;6.10;99.90;;;;;;5071749;28;20040;-52
2022/10/28 05:32:33;;;;;;;6.07;4.38;;;6.10;99.90;;;;;;5072887;28;20442;-50
2022/10/28 05:34:58;;;;;;;12.95;4.25;;;6.10;99.90;;;;;;5072806;28;20020;-53
2022/10/28 05:37:24;;;;;;;18.02;4.95;;;6.10;99.90;;;;;;5073157;28;20111;-51
2022/10/28 05:39:50;;;;;;;9.75;4.65;;;6.10;99.90;;;;;;5072994;28;20085;-50
2022/10/28 05:42:15;;;;;;;15.48;4.40;;;6.10;99.90;;;;;;5071590;28;20101;-51
2022/10/28 05:44:41;;;;;;;13.27;5.57;;;6.10;99.90;;;;;;5072834;28;20464;-50
2022/10/28 05:47:07;;;;;;;14.32;6.75;;;6.20;99.90;;;;;;5072817;28;20020;-50
2022/10/28 05:49:32;;;;;;;15.18;5.85;;;6.20;99.90;;;;;;5072975;28;20025;-52
2022/10/28 05:51:58;;;;;;;9.77;4.72;;;6.10;99.90;;;;;;5072215;28;20387;-51
2022/10/28 05:54:24;;;;;;;8.23;4.57;;;6.20;99.90;;;;;;5072438;28;20376;-50
2022/10/28 05:56:49;;;;;;;8.50;4.75;;;6.20;99.90;;;;;;5072581;28;20096;-50
2022/10/28 05:59:15;;;;;;;14.48;5.57;;;6.20;99.90;;;;;;5072363;28;20078;-54
2022/10/28 06:01:40;;;;;;;11.88;5.53;;;6.20;99.90;;;;;;5072433;28;20491;-49
2022/10/28 06:04:06;;;;;;;6.88;4.90;;;6.20;99.90;;;;;;5071239;28;20107;-54
2022/10/28 06:06:32;;;;;;;9.18;4.82;;;6.20;99.90;;;;;;5071930;28;20028;-50
2022/10/28 06:08:57;;;;;;;9.38;4.28;;;6.30;99.90;;;;;;5072250;28;20454;-52
2022/10/28 06:11:24;;;;;;;7.68;4.75;;;6.30;99.90;;;;;;5072297;28;20447;-54
2022/10/28 06:13:50;;;;;;;12.07;4.38;;;6.40;99.90;;;;;;5072553;28;20040;-51
2022/10/28 06:16:16;;;;;;;8.68;4.28;;;6.40;99.90;;;;;;5072002;28;20509;-53
2022/10/28 06:18:41;;;;;;;19.83;5.03;;;6.40;99.90;;;;;;5072139;28;20496;-52
2022/10/28 06:21:07;;;;;;;5.70;4.05;;;6.50;99.90;;;;;;5071553;28;20031;-50
2022/10/28 06:23:33;;;;;;;5.57;4.15;;;6.60;99.90;;;;;;5072002;28;20024;-50
2022/10/28 06:26:00;;;;;;;6.85;3.83;;;6.60;99.90;;;;;;5072171;28;20024;-50
2022/10/28 06:28:26;;;;;;;11.00;4.57;;;6.70;99.90;;;;;;5071566;28;20021;-51
2022/10/28 06:30:51;;;;;;;4.88;4.18;;;6.80;99.90;;;;;;5072072;28;20108;-54
2022/10/28 06:33:17;;;;;;;16.02;4.38;;;6.80;99.90;;;;;;5071675;28;20446;-51
2022/10/28 06:35:43;;;;;;;7.07;4.47;;;7.00;99.90;;;;;;5071873;28;20031;-49
2022/10/28 06:38:08;;;;;;;11.27;3.80;;;7.10;99.90;;;;;;5071947;28;20020;-50
2022/10/28 06:40:34;;;;;;;9.93;3.88;;;7.20;99.90;;;;;;5071476;28;20031;-50
2022/10/28 06:43:02;;;;;;;6.28;5.00;;;7.30;99.90;;;;;;5071514;28;20028;-50
2022/10/28 06:45:30;;;;;;;10.48;4.00;;;7.30;99.90;;;;;;5071588;28;20391;-50
2022/10/28 06:48:02;;;;;;;7.93;3.88;;;7.40;99.90;;;;;;5071494;28;20009;-50
2022/10/28 06:50:28;;;;;;;8.07;4.30;;;7.50;99.90;;;;;;5071273;28;20025;-51
2022/10/28 06:52:56;;;;;;;16.40;4.85;;;7.60;99.90;;;;;;5071446;28;20032;-51
2022/10/28 06:55:22;;;;;;;6.50;4.32;;;7.70;99.90;;;;;;5070039;28;20051;-50
2022/10/28 06:57:48;;;;;;;9.07;7.25;;;7.80;99.90;;;;;;5071398;28;20029;-50
2022/10/28 07:00:14;;;;;;;12.60;6.25;;;7.90;99.90;;;;;;5070798;28;20027;-50
2022/10/28 07:02:40;;;;;;;7.47;4.97;;;8.00;99.90;;;;;;5071281;28;20025;-51
2022/10/28 07:05:06;;;;;;;11.95;5.93;;;8.10;99.90;;;;;;5071205;28;20028;-50
2022/10/28 07:07:32;;;;;;;15.35;8.80;;;8.20;99.90;;;;;;5069823;28;20028;-51
2022/10/28 07:09:58;;;;;;;12.57;6.43;;;8.30;99.90;;;;;;5070268;28;20040;-50
2022/10/28 07:12:24;;;;;;;8.68;5.93;;;8.30;99.90;;;;;;5070955;28;20449;-51
2022/10/28 07:14:49;;;;;;;10.60;6.32;;;8.40;99.90;;;;;;5070865;28;20082;-50
2022/10/28 07:17:15;;;;;;;16.75;6.82;;;8.40;99.90;;;;;;5070863;28;20033;-50
2022/10/28 07:19:40;;;;;;;9.23;5.32;;;8.50;99.90;;;;;;5070923;28;20051;-51
2022/10/28 07:22:06;;;;;;;11.23;5.00;;;8.60;99.90;;;;;;5071060;28;20566;-49
2022/10/28 07:24:32;;;;;;;10.68;6.63;;;8.70;99.90;;;;;;5070710;28;20020;-49
2022/10/28 07:26:57;;;;;;;8.93;5.95;;;8.90;99.90;;;;;;5070611;28;20021;-49
2022/10/28 07:29:23;;;;;;;16.15;6.15;;;8.90;99.90;;;;;;5070519;28;20021;-49
2022/10/28 07:31:52;;;;;;;12.05;5.57;;;8.90;99.90;;;;;;5069965;28;20115;-49
2022/10/28 07:34:19;;;;;;;12.35;5.32;;;8.90;99.90;;;;;;5070517;28;20100;-50
2022/10/28 07:36:48;;;;;;;12.77;6.22;;;8.90;99.90;;;;;;5070775;28;20031;-51
2022/10/28 07:39:14;;;;;;;14.23;6.03;;;8.90;99.90;;;;;;5071483;28;20602;-50
2022/10/28 07:41:40;;;;;;;9.70;7.55;;;9.00;99.90;;;;;;5070378;28;20036;-51
2022/10/28 07:44:06;;;;;;;15.95;6.40;;;9.10;99.90;;;;;;5070652;28;20027;-49
2022/10/28 07:46:32;;;;;;;14.30;6.40;;;9.30;99.90;;;;;;5070302;28;20016;-50
2022/10/28 07:48:58;;;;;;;7.68;6.57;;;9.50;99.90;;;;;;5070471;28;20025;-50
2022/10/28 07:51:24;;;;;;;15.20;6.47;;;9.80;99.90;;;;;;5070250;28;20028;-50
2022/10/28 07:53:49;;;;;;;10.63;7.85;;;10.00;99.90;;;;;;5070601;28;20032;-50
2022/10/28 07:56:15;;;;;;;21.00;7.35;;;10.20;99.90;;;;;;5069069;28;20518;-49
2022/10/28 07:58:42;;;;;;;19.77;8.18;;;10.40;99.90;;;;;;5070104;28;20035;-50
2022/10/28 08:01:12;;;;;;;14.38;8.13;;;10.50;99.90;;;;;;5069036;28;20388;-51
2022/10/28 08:03:37;;;;;;;16.33;7.40;;;10.70;99.90;;;;;;5070315;28;20021;-50
2022/10/28 08:06:05;;;;;;;22.88;7.40;;;10.80;99.90;;;;;;5070559;28;20070;-50
2022/10/28 08:08:31;;;;;;;18.17;9.88;;;11.20;99.90;;;;;;5069620;28;20398;-50
2022/10/28 08:10:56;;;;;;;19.67;9.23;;;11.40;99.90;;;;;;5069578;28;20021;-50
2022/10/28 08:13:22;;;;;;;12.20;7.47;;;11.70;99.90;;;;;;5069785;28;20024;-50
2022/10/28 08:15:54;;;;;;;16.50;8.35;;;11.80;99.90;;;;;;5069676;28;20021;-50
2022/10/28 08:18:21;;;;;;;13.80;6.97;;;12.00;99.90;;;;;;5069751;28;20033;-49
2022/10/28 08:20:47;;;;;;;11.27;6.57;;;12.10;99.90;;;;;;5070318;28;20468;-49
2022/10/28 08:23:13;;;;;;;11.98;6.82;;;12.20;99.90;;;;;;5070144;28;20012;-51
2022/10/28 08:25:47;;;;;;;17.23;6.68;;;12.30;99.90;;;;;;5070140;28;20029;-50
2022/10/28 08:28:13;;;;;;;11.77;6.78;;;12.50;99.90;;;;;;5069745;28;20031;-51
2022/10/28 08:30:38;;;;;;;11.23;6.15;;;12.60;99.90;;;;;;5069940;28;20033;-51
2022/10/28 08:33:04;;;;;;;9.57;6.53;;;12.80;99.90;;;;;;5069559;28;20028;-51
2022/10/28 08:35:34;;;;;;;18.25;6.13;;;13.00;99.90;;;;;;5069701;28;20032;-55
2022/10/28 08:38:00;;;;;;;16.00;6.05;;;13.30;99.90;;;;;;5070188;28;20153;-52
2022/10/28 08:40:42;;;;;;;21.67;6.60;;;13.50;99.90;;;;;;5069361;28;20021;-51
2022/10/28 08:43:23;;;;;;;26.13;7.07;;;13.80;99.90;;;;;;5071147;28;20128;-52
2022/10/28 08:45:59;;;;;;;16.30;8.10;;;14.00;99.90;;;;;;5074850;28;20025;-51
2022/10/28 08:48:35;;;;;;;12.85;6.47;;;14.20;99.90;;;;;;5074821;28;20020;-52
2022/10/28 08:51:10;;;;;;;14.32;6.13;;;14.50;99.90;;;;;;5075027;28;20035;-50
2022/10/28 08:53:58;;;;;;;18.23;6.90;;;14.70;99.90;;;;;;5075145;28;20021;-52
2022/10/28 08:56:29;;;;;;;7.35;3.08;;;14.90;99.90;;;;;;5054011;28;20025;-51
2022/10/28 08:58:59;;;;;;;8.38;3.25;;;15.10;99.90;;;;;;5070217;28;20052;-51
2022/10/28 09:01:50;;;;;;;6.15;3.72;;;15.30;99.90;;;;;;5073758;28;20024;-50
2022/10/28 09:04:24;;;;;;;8.98;3.40;;;15.50;99.90;;;;;;5074402;28;20515;-50
2022/10/28 09:06:51;;;;;;;14.18;3.35;;;15.60;99.90;;;;;;5074846;28;20017;-50
2022/10/28 09:09:20;;;;;;;13.35;4.18;;;15.70;99.90;;;;;;5074549;28;20071;-51
2022/10/28 09:11:56;;;;;;;13.00;5.10;;;15.90;99.90;;;;;;5074823;28;20054;-53
2022/10/28 09:14:59;;;;;;;14.15;4.63;;;15.90;99.90;;;;;;5074526;28;20028;-51
2022/10/28 09:17:50;;;;;;;6.25;2.90;;;16.00;99.90;;;;;;5074364;28;20099;-51
2022/10/28 09:20:20;;;;;;;6.38;3.20;;;16.20;99.90;;;;;;5074126;28;20724;-50
2022/10/28 09:22:58;;;;;;;13.45;3.67;;;16.30;99.90;;;;;;5073728;28;20111;-51
2022/10/28 09:26:07;;;;;;;9.98;2.92;;;16.70;99.90;;;;;;5072729;28;20480;-51
2022/10/28 09:28:42;;;;;;;11.43;3.65;;;17.00;99.90;;;;;;5074038;28;20021;-51
2022/10/28 09:31:34;;;;;;;8.48;2.95;;;17.30;99.90;;;;;;5088319;28;20016;-53
2022/10/28 09:34:43;;;;;;;9.18;3.63;;;17.60;99.90;;;;;;5086897;28;20020;-49
2022/10/28 09:37:43;;;;;;;10.57;3.08;;;17.90;99.90;;;;;;5031268;28;20052;-51
2022/10/28 09:40:31;;;;;;;11.18;3.35;;;18.20;99.90;;;;;;5028354;28;20059;-53
2022/10/28 09:43:19;;;;;;;8.15;3.60;;;18.20;99.90;;;;;;5069268;28;20033;-52
2022/10/28 09:45:48;;;;;;;5.50;3.15;;;18.30;99.90;;;;;;5073274;28;20045;-51
2022/10/28 09:48:18;;;;;;;8.15;3.65;;;18.80;99.90;;;;;;5073754;28;20035;-50
2022/10/28 09:50:44;;;;;;;9.45;3.25;;;19.60;99.90;;;;;;5073915;28;20376;-50
2022/10/28 09:53:16;;;;;;;8.88;3.42;;;20.80;99.70;;;;;;5073750;28;20032;-53
2022/10/28 09:55:41;;;;;;;10.02;2.92;;;21.80;97.20;;;;;;5072624;28;20028;-52
2022/10/28 09:58:11;;;;;;;13.82;2.80;;;22.30;94.10;;;;;;5073379;28;20033;-51
2022/10/28 10:00:37;;;;;;;5.97;2.80;;;23.30;92.60;;;;;;5072848;28;20023;-52
2022/10/28 10:03:03;;;;;;;12.30;3.25;;;23.70;88.70;;;;;;5073436;28;20016;-51
2022/10/28 10:05:32;;;;;;;11.57;3.63;;;24.30;87.60;;;;;;5073489;28;20020;-50
2022/10/28 10:08:02;;;;;;;6.70;2.90;;;24.60;86.50;;;;;;5073317;28;20036;-52
2022/10/28 10:10:43;;;;;;;12.15;3.50;;;25.50;81.80;;;;;;5072949;28;20024;-54
2022/10/28 10:13:11;;;;;;;5.45;2.30;;;25.30;81.20;;;;;;5072842;28;20025;-53
2022/10/28 10:15:45;;;;;;;5.25;2.25;;;25.30;77.80;;;;;;5073043;28;20017;-54
2022/10/28 10:18:22;;;;;;;11.98;3.95;;;26.10;75.80;;;;;;5070318;28;20104;-54
2022/10/28 10:20:54;;;;;;;7.13;2.45;;;26.30;74.00;;;;;;5072520;28;20047;-50
2022/10/28 10:23:33;;;;;;;9.95;3.42;;;26.70;72.70;;;;;;5072703;28;20028;-53
2022/10/28 10:26:13;;;;;;;9.57;3.70;;;25.80;74.40;;;;;;5071494;28;20380;-55
2022/10/28 10:28:44;;;;;;;7.68;3.85;;;25.40;72.90;;;;;;5072847;28;20024;-51
2022/10/28 10:31:21;;;;;;;11.82;4.35;;;24.60;76.40;;;;;;5071569;28;20045;-52
2022/10/28 10:33:53;;;;;;;7.40;4.32;;;25.00;75.10;;;;;;5070031;28;20023;-51
2022/10/28 10:36:22;;;;;;;16.25;4.28;;;25.00;74.40;;;;;;5071501;28;20017;-53
2022/10/28 10:38:57;;;;;;;9.90;4.18;;;25.40;73.00;;;;;;5071640;28;20107;-53
2022/10/28 10:41:58;;;;;;;11.38;5.07;;;24.70;74.10;;;;;;5071514;28;20021;-52
2022/10/28 10:44:33;;;;;;;10.27;4.30;;;24.30;74.30;;;;;;4989699;28;20026;-49
2022/10/28 10:46:58;;;;;;;16.38;4.45;;;23.80;74.50;;;;;;5059509;28;20103;-50
2022/10/28 10:49:24;;;;;;;6.55;4.80;;;23.60;73.30;;;;;;5070169;28;20602;-51
2022/10/28 10:51:52;;;;;;;11.50;4.18;;;23.50;73.90;;;;;;5070264;28;20021;-50
2022/10/28 10:54:18;;;;;;;8.18;4.07;;;23.30;75.60;;;;;;5069097;28;20032;-51
2022/10/28 10:56:44;;;;;;;7.38;3.65;;;23.70;72.50;;;;;;5070580;28;20015;-50
2022/10/28 10:59:36;;;;;;;12.65;3.40;;;25.00;69.10;;;;;;5070321;28;20108;-51
2022/10/28 11:02:18;;;;;;;15.93;3.35;;;26.00;67.40;;;;;;5069211;28;20044;-50
2022/10/28 11:04:54;;;;;;;15.48;2.92;;;26.50;65.50;;;;;;5071232;28;20390;-51
2022/10/28 11:07:20;;;;;;;14.95;3.90;;;27.30;63.70;;;;;;5071213;28;20024;-52
2022/10/28 11:09:49;;;;;;;6.72;3.17;;;27.10;64.10;;;;;;5070669;28;20044;-51
2022/10/28 11:12:26;;;;;;;8.20;3.60;;;27.50;63.50;;;;;;5070870;28;20081;-53
2022/10/28 11:14:54;;;;;;;13.70;3.88;;;27.50;63.20;;;;;;5070929;28;20050;-52
2022/10/28 11:17:29;;;;;;;15.27;4.28;;;27.60;62.60;;;;;;5070827;28;20078;-52
2022/10/28 11:20:17;;;;;;;9.88;3.55;;;27.80;62.70;;;;;;5070836;28;20332;-51
2022/10/28 11:22:59;;;;;;;15.27;3.65;;;27.90;61.00;;;;;;5070753;28;20032;-51
2022/10/28 11:25:31;;;;;;;9.93;2.80;;;28.00;59.30;;;;;;5070651;28;20024;-51
2022/10/28 11:28:35;;;;;;;20.00;3.85;;;27.70;60.60;;;;;;5070855;28;20012;-51
2022/10/28 11:31:19;;;;;;;8.48;2.90;;;27.40;61.10;;;;;;5054567;28;20033;-54
2022/10/28 11:34:22;;;;;;;7.90;3.35;;;27.60;62.40;;;;;;5070522;28;20408;-53
2022/10/28 11:37:46;;;;;;;8.13;3.00;;;27.80;63.30;;;;;;5070624;28;20033;-54
2022/10/28 11:40:53;;;;;;;13.02;3.70;;;28.20;62.70;;;;;;5006002;28;20045;-52
2022/10/28 11:43:52;;;;;;;8.43;3.28;;;28.40;63.20;;;;;;5070386;28;20383;-54
2022/10/28 11:46:32;;;;;;;12.80;3.15;;;29.30;62.50;;;;;;5070604;28;20024;-53
2022/10/28 11:49:21;;;;;;;12.68;3.95;;;29.00;60.50;;;;;;5070621;28;20020;-53
2022/10/28 11:51:49;;;;;;;13.18;4.05;;;28.80;61.60;;;;;;5070485;28;20107;-54
2022/10/28 11:55:05;;;;;;;14.30;3.83;;;29.70;59.40;;;;;;5070312;28;20020;-52
2022/10/28 11:58:04;;;;;;;47.05;5.72;;;30.10;58.30;;;;;;4988511;28;20030;-54
2022/10/28 12:01:12;;;;;;;5.60;3.10;;;30.20;57.50;;;;;;4988498;28;20525;-51
2022/10/28 12:03:44;;;;;;;8.68;3.20;;;30.10;57.80;;;;;;5013490;28;20461;-53
2022/10/28 12:06:33;;;;;;;8.38;3.10;;;29.50;57.70;;;;;;5070798;28;20114;-51
2022/10/28 12:09:22;;;;;;;8.23;3.88;;;29.30;56.70;;;;;;5070093;28;20048;-55
2022/10/28 12:12:05;;;;;;;13.30;3.95;;;29.80;57.80;;;;;;5070518;28;20029;-51
2022/10/28 12:14:36;;;;;;;14.00;3.30;;;29.70;56.50;;;;;;5070263;28;20021;-54
2022/10/28 12:17:40;;;;;;;7.65;3.65;;;29.60;57.80;;;;;;5069821;28;20056;-56
2022/10/28 12:20:24;;;;;;;10.18;3.40;;;29.50;56.80;;;;;;5024374;28;20539;-53
2022/10/28 12:22:58;;;;;;;9.40;4.22;;;30.00;57.10;;;;;;5069156;28;20035;-53
2022/10/28 12:25:31;;;;;;;12.23;3.50;;;30.10;57.10;;;;;;5068241;28;20487;-53
2022/10/28 12:28:05;;;;;;;15.07;3.58;;;30.60;55.80;;;;;;5069630;28;20029;-54
2022/10/28 12:30:35;;;;;;;13.23;3.47;;;30.00;54.90;;;;;;5069321;28;20017;-51
2022/10/28 12:33:33;;;;;;;7.93;3.50;;;29.80;56.10;;;;;;5069539;28;20034;-51
2022/10/28 12:36:07;;;;;;;12.45;2.75;;;29.60;55.20;;;;;;5044790;28;20029;-53
2022/10/28 12:38:47;;;;;;;8.50;3.10;;;30.00;55.70;;;;;;5054498;28;20043;-55
2022/10/28 12:41:16;;;;;;;23.88;4.20;;;30.10;53.70;;;;;;5067708;28;20028;-56
2022/10/28 12:43:50;;;;;;;13.50;3.30;;;30.20;55.00;;;;;;5068338;28;20033;-56
2022/10/28 12:46:26;;;;;;;16.83;3.72;;;30.40;54.50;;;;;;5069729;28;20332;-55
2022/10/28 12:49:02;;;;;;;15.55;3.22;;;30.10;54.40;;;;;;5068878;28;20052;-54
2022/10/28 12:51:37;;;;;;;11.15;3.28;;;30.10;55.20;;;;;;5068889;28;20036;-53
2022/10/28 12:54:14;;;;;;;16.33;3.90;;;30.20;54.80;;;;;;5069704;28;20032;-51
2022/10/28 12:56:51;;;;;;;11.18;3.38;;;29.70;53.70;;;;;;5069899;28;20434;-52
2022/10/28 12:59:35;;;;;;;16.45;3.95;;;28.70;56.40;;;;;;5067391;28;20032;-51
2022/10/28 13:02:04;;;;;;;8.48;3.53;;;28.50;57.10;;;;;;5069310;28;20025;-51
2022/10/28 13:04:30;;;;;;;14.68;4.20;;;27.50;58.20;;;;;;5069474;28;20690;-50
2022/10/28 13:07:13;;;;;;;13.57;3.60;;;27.10;59.20;;;;;;5084172;28;20055;-50
2022/10/28 13:10:00;;;;;;;26.50;3.92;;;26.10;60.20;;;;;;5069181;28;20048;-50
2022/10/28 13:12:42;;;;;;;10.07;3.72;;;25.40;62.40;;;;;;5069314;28;20349;-53
2022/10/28 13:15:24;;;;;;;5.80;3.67;;;24.90;63.40;;;;;;5068995;28;20119;-50